sensor_id;sensor_type;location;lat;lon;timestamp;P1;durP1;ratioP1;P2;durP2;ratioP2
6406;SDS011;3236;51.022;6.818;2023-10-31T00:00:19;0.65;;;0.65;;
6406;SDS011;3236;51.022;6.818;2023-10-31T00:02:49;2.00;;;1.50;;
6406;SDS011;3236;51.022;6.818;2023-10-31T00:05:18;2.30;;;2.10;;
6406;SDS011;3236;51.022;6.818;2023-10-31T00:07:47;3.55;;;1.58;;
6406;SDS011;3236;51.022;6.818;2023-10-31T00:10:14;1.65;;;1.55;;
6406;SDS011;3236;51.022;6.818;2023-10-31T00:12:41;1.75;;;1.40;;
6406;SDS011;3236;51.022;6.818;2023-10-31T00:15:08;2.75;;;1.88;;
6406;SDS011;3236;51.022;6.818;2023-10-31T00:17:35;2.15;;;1.70;;
6406;SDS011;3236;51.022;6.818;2023-10-31T00:20:03;1.35;;;1.25;;
6406;SDS011;3236;51.022;6.818;2023-10-31T00:22:32;3.03;;;2.67;;
6406;SDS011;3236;51.022;6.818;2023-10-31T00:25:00;2.22;;;2.03;;
6406;SDS011;3236;51.022;6.818;2023-10-31T00:27:30;4.00;;;3.00;;
6406;SDS011;3236;51.022;6.818;2023-10-31T00:29:57;3.33;;;2.55;;
6406;SDS011;3236;51.022;6.818;2023-10-31T00:32:37;2.40;;;1.88;;
6406;SDS011;3236;51.022;6.818;2023-10-31T00:35:05;5.75;;;2.30;;
6406;SDS011;3236;51.022;6.818;2023-10-31T00:37:32;2.20;;;1.63;;
6406;SDS011;3236;51.022;6.818;2023-10-31T00:40:01;2.90;;;2.40;;
6406;SDS011;3236;51.022;6.818;2023-10-31T00:42:31;3.70;;;2.55;;
6406;SDS011;3236;51.022;6.818;2023-10-31T00:44:58;2.25;;;1.95;;
6406;SDS011;3236;51.022;6.818;2023-10-31T00:47:29;3.53;;;3.05;;
6406;SDS011;3236;51.022;6.818;2023-10-31T00:49:56;3.25;;;2.38;;
6406;SDS011;3236;51.022;6.818;2023-10-31T00:52:23;2.35;;;1.67;;
6406;SDS011;3236;51.022;6.818;2023-10-31T00:54:50;2.33;;;1.60;;
6406;SDS011;3236;51.022;6.818;2023-10-31T00:57:26;3.40;;;2.25;;
6406;SDS011;3236;51.022;6.818;2023-10-31T00:59:55;2.75;;;1.20;;
6406;SDS011;3236;51.022;6.818;2023-10-31T01:02:22;7.05;;;2.05;;
6406;SDS011;3236;51.022;6.818;2023-10-31T01:04:55;4.93;;;1.98;;
6406;SDS011;3236;51.022;6.818;2023-10-31T01:07:22;1.77;;;1.23;;
6406;SDS011;3236;51.022;6.818;2023-10-31T01:09:49;1.88;;;1.30;;
6406;SDS011;3236;51.022;6.818;2023-10-31T01:12:17;2.47;;;1.85;;
6406;SDS011;3236;51.022;6.818;2023-10-31T01:14:47;6.83;;;1.93;;
6406;SDS011;3236;51.022;6.818;2023-10-31T01:17:15;4.05;;;1.90;;
6406;SDS011;3236;51.022;6.818;2023-10-31T01:19:45;4.45;;;2.08;;
6406;SDS011;3236;51.022;6.818;2023-10-31T01:22:12;3.60;;;2.63;;
6406;SDS011;3236;51.022;6.818;2023-10-31T01:24:48;2.90;;;2.03;;
6406;SDS011;3236;51.022;6.818;2023-10-31T01:27:15;4.68;;;1.45;;
6406;SDS011;3236;51.022;6.818;2023-10-31T01:29:44;5.00;;;1.65;;
6406;SDS011;3236;51.022;6.818;2023-10-31T01:32:11;3.00;;;2.22;;
6406;SDS011;3236;51.022;6.818;2023-10-31T01:34:39;6.45;;;2.72;;
6406;SDS011;3236;51.022;6.818;2023-10-31T01:37:09;7.60;;;2.38;;
6406;SDS011;3236;51.022;6.818;2023-10-31T01:39:36;1.98;;;1.70;;
6406;SDS011;3236;51.022;6.818;2023-10-31T01:42:06;2.95;;;1.42;;
6406;SDS011;3236;51.022;6.818;2023-10-31T01:44:34;4.10;;;2.00;;
6406;SDS011;3236;51.022;6.818;2023-10-31T01:47:11;4.78;;;1.92;;
6406;SDS011;3236;51.022;6.818;2023-10-31T01:49:38;4.32;;;2.00;;
6406;SDS011;3236;51.022;6.818;2023-10-31T01:52:09;2.13;;;1.75;;
6406;SDS011;3236;51.022;6.818;2023-10-31T01:54:40;6.20;;;2.50;;
6406;SDS011;3236;51.022;6.818;2023-10-31T01:57:08;3.33;;;2.10;;
6406;SDS011;3236;51.022;6.818;2023-10-31T01:59:36;2.72;;;1.67;;
6406;SDS011;3236;51.022;6.818;2023-10-31T02:02:03;4.07;;;2.20;;
6406;SDS011;3236;51.022;6.818;2023-10-31T02:04:39;9.68;;;2.60;;
6406;SDS011;3236;51.022;6.818;2023-10-31T02:07:10;2.15;;;1.95;;
6406;SDS011;3236;51.022;6.818;2023-10-31T02:09:37;5.72;;;1.92;;
6406;SDS011;3236;51.022;6.818;2023-10-31T02:15:02;5.05;;;1.73;;
6406;SDS011;3236;51.022;6.818;2023-10-31T02:17:36;4.53;;;1.92;;
6406;SDS011;3236;51.022;6.818;2023-10-31T02:20:06;3.22;;;2.10;;
6406;SDS011;3236;51.022;6.818;2023-10-31T02:22:35;4.82;;;1.58;;
6406;SDS011;3236;51.022;6.818;2023-10-31T02:25:14;8.10;;;2.37;;
6406;SDS011;3236;51.022;6.818;2023-10-31T02:27:43;2.60;;;1.73;;
6406;SDS011;3236;51.022;6.818;2023-10-31T02:30:13;2.63;;;1.52;;
6406;SDS011;3236;51.022;6.818;2023-10-31T02:32:43;2.80;;;1.83;;
6406;SDS011;3236;51.022;6.818;2023-10-31T02:35:13;4.90;;;2.40;;
6406;SDS011;3236;51.022;6.818;2023-10-31T02:37:43;4.25;;;2.20;;
6406;SDS011;3236;51.022;6.818;2023-10-31T02:40:13;5.03;;;1.83;;
6406;SDS011;3236;51.022;6.818;2023-10-31T02:42:40;2.53;;;1.60;;
6406;SDS011;3236;51.022;6.818;2023-10-31T02:45:10;2.30;;;1.60;;
6406;SDS011;3236;51.022;6.818;2023-10-31T02:47:38;4.18;;;1.88;;
6406;SDS011;3236;51.022;6.818;2023-10-31T02:50:08;3.97;;;2.15;;
6406;SDS011;3236;51.022;6.818;2023-10-31T02:52:35;9.60;;;1.80;;
6406;SDS011;3236;51.022;6.818;2023-10-31T02:55:09;4.95;;;2.08;;
6406;SDS011;3236;51.022;6.818;2023-10-31T02:57:38;2.75;;;1.83;;
6406;SDS011;3236;51.022;6.818;2023-10-31T03:00:05;7.70;;;2.58;;
6406;SDS011;3236;51.022;6.818;2023-10-31T03:02:35;5.43;;;1.98;;
6406;SDS011;3236;51.022;6.818;2023-10-31T03:05:03;2.15;;;1.95;;
6406;SDS011;3236;51.022;6.818;2023-10-31T03:07:30;4.22;;;2.15;;
6406;SDS011;3236;51.022;6.818;2023-10-31T03:09:58;3.47;;;1.73;;
6406;SDS011;3236;51.022;6.818;2023-10-31T03:12:29;5.32;;;2.17;;
6406;SDS011;3236;51.022;6.818;2023-10-31T03:14:56;3.45;;;2.25;;
6406;SDS011;3236;51.022;6.818;2023-10-31T03:17:30;2.50;;;1.55;;
6406;SDS011;3236;51.022;6.818;2023-10-31T03:20:00;1.92;;;1.60;;
6406;SDS011;3236;51.022;6.818;2023-10-31T03:22:27;5.30;;;1.70;;
6406;SDS011;3236;51.022;6.818;2023-10-31T03:24:58;2.80;;;1.70;;
6406;SDS011;3236;51.022;6.818;2023-10-31T03:27:25;1.80;;;1.33;;
6406;SDS011;3236;51.022;6.818;2023-10-31T03:29:53;3.05;;;1.73;;
6406;SDS011;3236;51.022;6.818;2023-10-31T03:32:21;1.80;;;1.52;;
6406;SDS011;3236;51.022;6.818;2023-10-31T03:34:51;2.17;;;1.53;;
6406;SDS011;3236;51.022;6.818;2023-10-31T03:37:18;1.60;;;1.50;;
6406;SDS011;3236;51.022;6.818;2023-10-31T03:39:45;1.85;;;1.23;;
6406;SDS011;3236;51.022;6.818;2023-10-31T03:42:13;2.25;;;1.52;;
6406;SDS011;3236;51.022;6.818;2023-10-31T03:44:42;3.33;;;1.35;;
6406;SDS011;3236;51.022;6.818;2023-10-31T03:47:14;2.55;;;1.63;;
6406;SDS011;3236;51.022;6.818;2023-10-31T03:49:41;4.18;;;1.60;;
6406;SDS011;3236;51.022;6.818;2023-10-31T03:52:08;4.00;;;1.27;;
6406;SDS011;3236;51.022;6.818;2023-10-31T03:54:36;6.45;;;2.10;;
6406;SDS011;3236;51.022;6.818;2023-10-31T03:57:08;2.30;;;1.13;;
6406;SDS011;3236;51.022;6.818;2023-10-31T03:59:36;2.55;;;1.30;;
6406;SDS011;3236;51.022;6.818;2023-10-31T04:02:11;2.42;;;1.40;;
6406;SDS011;3236;51.022;6.818;2023-10-31T04:04:44;0.85;;;0.77;;
6406;SDS011;3236;51.022;6.818;2023-10-31T04:07:11;1.27;;;0.90;;
6406;SDS011;3236;51.022;6.818;2023-10-31T04:09:38;2.13;;;1.45;;
6406;SDS011;3236;51.022;6.818;2023-10-31T04:12:08;3.17;;;1.23;;
6406;SDS011;3236;51.022;6.818;2023-10-31T04:14:37;2.25;;;1.40;;
6406;SDS011;3236;51.022;6.818;2023-10-31T04:17:07;3.35;;;1.52;;
6406;SDS011;3236;51.022;6.818;2023-10-31T04:19:37;1.67;;;1.05;;
6406;SDS011;3236;51.022;6.818;2023-10-31T04:22:05;1.13;;;1.00;;
6406;SDS011;3236;51.022;6.818;2023-10-31T04:24:32;2.92;;;1.40;;
6406;SDS011;3236;51.022;6.818;2023-10-31T04:27:01;2.15;;;1.38;;
6406;SDS011;3236;51.022;6.818;2023-10-31T04:29:29;1.10;;;0.82;;
6406;SDS011;3236;51.022;6.818;2023-10-31T04:31:56;3.50;;;1.30;;
6406;SDS011;3236;51.022;6.818;2023-10-31T04:34:24;2.47;;;1.27;;
6406;SDS011;3236;51.022;6.818;2023-10-31T04:36:52;2.75;;;1.52;;
6406;SDS011;3236;51.022;6.818;2023-10-31T04:39:20;2.00;;;1.63;;
6406;SDS011;3236;51.022;6.818;2023-10-31T04:41:52;1.85;;;1.30;;
6406;SDS011;3236;51.022;6.818;2023-10-31T04:44:20;1.27;;;1.17;;
6406;SDS011;3236;51.022;6.818;2023-10-31T04:46:47;1.80;;;1.65;;
6406;SDS011;3236;51.022;6.818;2023-10-31T04:49:14;1.85;;;1.60;;
6406;SDS011;3236;51.022;6.818;2023-10-31T04:51:44;3.88;;;1.65;;
6406;SDS011;3236;51.022;6.818;2023-10-31T04:54:12;1.80;;;1.55;;
6406;SDS011;3236;51.022;6.818;2023-10-31T04:56:42;3.28;;;1.75;;
6406;SDS011;3236;51.022;6.818;2023-10-31T04:59:11;4.70;;;2.13;;
6406;SDS011;3236;51.022;6.818;2023-10-31T05:01:52;1.67;;;1.58;;
6406;SDS011;3236;51.022;6.818;2023-10-31T05:04:20;2.55;;;2.10;;
6406;SDS011;3236;51.022;6.818;2023-10-31T05:06:47;5.57;;;1.92;;
6406;SDS011;3236;51.022;6.818;2023-10-31T05:09:16;2.97;;;2.00;;
6406;SDS011;3236;51.022;6.818;2023-10-31T05:11:45;1.90;;;1.70;;
6406;SDS011;3236;51.022;6.818;2023-10-31T05:14:14;3.90;;;2.33;;
6406;SDS011;3236;51.022;6.818;2023-10-31T05:16:42;2.53;;;1.95;;
6406;SDS011;3236;51.022;6.818;2023-10-31T05:19:12;1.40;;;1.30;;
6406;SDS011;3236;51.022;6.818;2023-10-31T05:21:39;3.95;;;2.45;;
6406;SDS011;3236;51.022;6.818;2023-10-31T05:24:07;2.80;;;1.92;;
6406;SDS011;3236;51.022;6.818;2023-10-31T05:26:36;6.65;;;1.55;;
6406;SDS011;3236;51.022;6.818;2023-10-31T05:29:03;2.40;;;1.88;;
6406;SDS011;3236;51.022;6.818;2023-10-31T05:31:31;1.77;;;1.55;;
6406;SDS011;3236;51.022;6.818;2023-10-31T05:33:58;6.72;;;2.05;;
6406;SDS011;3236;51.022;6.818;2023-10-31T05:36:25;2.28;;;1.90;;
6406;SDS011;3236;51.022;6.818;2023-10-31T05:39:02;2.42;;;1.95;;
6406;SDS011;3236;51.022;6.818;2023-10-31T05:41:29;2.95;;;1.50;;
6406;SDS011;3236;51.022;6.818;2023-10-31T05:43:58;2.35;;;1.85;;
6406;SDS011;3236;51.022;6.818;2023-10-31T05:46:25;2.35;;;1.95;;
6406;SDS011;3236;51.022;6.818;2023-10-31T05:48:53;3.25;;;2.10;;
6406;SDS011;3236;51.022;6.818;2023-10-31T05:51:21;4.35;;;1.55;;
6406;SDS011;3236;51.022;6.818;2023-10-31T05:53:50;4.25;;;1.75;;
6406;SDS011;3236;51.022;6.818;2023-10-31T05:56:18;3.63;;;2.00;;
6406;SDS011;3236;51.022;6.818;2023-10-31T05:58:45;1.95;;;1.75;;
6406;SDS011;3236;51.022;6.818;2023-10-31T06:01:14;2.22;;;1.42;;
6406;SDS011;3236;51.022;6.818;2023-10-31T06:03:41;4.07;;;2.15;;
6406;SDS011;3236;51.022;6.818;2023-10-31T06:06:12;7.00;;;2.10;;
6406;SDS011;3236;51.022;6.818;2023-10-31T06:08:39;1.70;;;1.58;;
6406;SDS011;3236;51.022;6.818;2023-10-31T06:11:06;4.88;;;1.92;;
6406;SDS011;3236;51.022;6.818;2023-10-31T06:13:34;2.58;;;1.80;;
6406;SDS011;3236;51.022;6.818;2023-10-31T06:16:01;3.50;;;2.38;;
6406;SDS011;3236;51.022;6.818;2023-10-31T06:18:30;2.42;;;2.22;;
6406;SDS011;3236;51.022;6.818;2023-10-31T06:21:00;4.63;;;2.40;;
6406;SDS011;3236;51.022;6.818;2023-10-31T06:23:31;6.22;;;2.58;;
6406;SDS011;3236;51.022;6.818;2023-10-31T06:25:58;2.50;;;2.28;;
6406;SDS011;3236;51.022;6.818;2023-10-31T06:28:25;2.00;;;1.77;;
6406;SDS011;3236;51.022;6.818;2023-10-31T06:30:52;2.88;;;2.28;;
6406;SDS011;3236;51.022;6.818;2023-10-31T06:33:20;3.20;;;2.90;;
6406;SDS011;3236;51.022;6.818;2023-10-31T06:35:48;4.13;;;2.83;;
6406;SDS011;3236;51.022;6.818;2023-10-31T06:38:17;3.63;;;2.80;;
6406;SDS011;3236;51.022;6.818;2023-10-31T06:40:44;3.80;;;2.90;;
6406;SDS011;3236;51.022;6.818;2023-10-31T06:43:14;2.90;;;2.47;;
6406;SDS011;3236;51.022;6.818;2023-10-31T06:45:41;3.22;;;2.60;;
6406;SDS011;3236;51.022;6.818;2023-10-31T06:48:09;6.57;;;3.30;;
6406;SDS011;3236;51.022;6.818;2023-10-31T06:50:36;3.38;;;2.90;;
6406;SDS011;3236;51.022;6.818;2023-10-31T06:53:05;4.10;;;2.80;;
6406;SDS011;3236;51.022;6.818;2023-10-31T06:55:36;4.20;;;3.00;;
6406;SDS011;3236;51.022;6.818;2023-10-31T06:58:03;3.60;;;2.83;;
6406;SDS011;3236;51.022;6.818;2023-10-31T07:00:31;3.42;;;3.10;;
6406;SDS011;3236;51.022;6.818;2023-10-31T07:02:58;6.18;;;3.65;;
6406;SDS011;3236;51.022;6.818;2023-10-31T07:05:30;3.25;;;2.95;;
6406;SDS011;3236;51.022;6.818;2023-10-31T07:07:59;6.70;;;3.38;;
6406;SDS011;3236;51.022;6.818;2023-10-31T07:10:29;3.72;;;2.63;;
6406;SDS011;3236;51.022;6.818;2023-10-31T07:12:58;16.00;;;3.67;;
6406;SDS011;3236;51.022;6.818;2023-10-31T07:15:25;6.38;;;2.90;;
6406;SDS011;3236;51.022;6.818;2023-10-31T07:17:52;8.23;;;3.72;;
6406;SDS011;3236;51.022;6.818;2023-10-31T07:20:20;5.28;;;3.25;;
6406;SDS011;3236;51.022;6.818;2023-10-31T07:22:49;4.25;;;3.50;;
6406;SDS011;3236;51.022;6.818;2023-10-31T07:25:16;7.25;;;3.38;;
6406;SDS011;3236;51.022;6.818;2023-10-31T07:27:47;4.18;;;3.20;;
6406;SDS011;3236;51.022;6.818;2023-10-31T07:30:18;7.28;;;3.90;;
6406;SDS011;3236;51.022;6.818;2023-10-31T07:32:45;5.20;;;4.18;;
6406;SDS011;3236;51.022;6.818;2023-10-31T07:35:12;4.80;;;3.63;;
6406;SDS011;3236;51.022;6.818;2023-10-31T07:37:39;4.90;;;3.20;;
6406;SDS011;3236;51.022;6.818;2023-10-31T07:40:07;4.95;;;3.15;;
6406;SDS011;3236;51.022;6.818;2023-10-31T07:42:35;7.57;;;3.00;;
6406;SDS011;3236;51.022;6.818;2023-10-31T07:45:04;4.45;;;2.78;;
6406;SDS011;3236;51.022;6.818;2023-10-31T07:47:35;3.30;;;2.33;;
6406;SDS011;3236;51.022;6.818;2023-10-31T07:50:03;8.43;;;3.05;;
6406;SDS011;3236;51.022;6.818;2023-10-31T07:52:30;4.15;;;2.90;;
6406;SDS011;3236;51.022;6.818;2023-10-31T07:54:57;4.50;;;3.33;;
6406;SDS011;3236;51.022;6.818;2023-10-31T07:57:25;5.47;;;3.90;;
6406;SDS011;3236;51.022;6.818;2023-10-31T07:59:55;5.90;;;2.28;;
6406;SDS011;3236;51.022;6.818;2023-10-31T08:02:24;10.85;;;3.90;;
6406;SDS011;3236;51.022;6.818;2023-10-31T08:04:51;6.50;;;3.58;;
6406;SDS011;3236;51.022;6.818;2023-10-31T08:07:21;10.38;;;3.55;;
6406;SDS011;3236;51.022;6.818;2023-10-31T08:09:49;4.38;;;2.75;;
6406;SDS011;3236;51.022;6.818;2023-10-31T08:12:16;3.80;;;2.50;;
6406;SDS011;3236;51.022;6.818;2023-10-31T08:14:43;8.18;;;2.72;;
6406;SDS011;3236;51.022;6.818;2023-10-31T08:17:12;7.05;;;2.80;;
6406;SDS011;3236;51.022;6.818;2023-10-31T08:19:41;4.85;;;3.33;;
6406;SDS011;3236;51.022;6.818;2023-10-31T08:22:11;3.22;;;2.45;;
6406;SDS011;3236;51.022;6.818;2023-10-31T08:24:42;8.48;;;3.10;;
6406;SDS011;3236;51.022;6.818;2023-10-31T08:27:09;4.93;;;3.13;;
6406;SDS011;3236;51.022;6.818;2023-10-31T08:29:37;6.72;;;2.63;;
6406;SDS011;3236;51.022;6.818;2023-10-31T08:32:08;5.00;;;1.77;;
6406;SDS011;3236;51.022;6.818;2023-10-31T08:34:35;4.47;;;2.58;;
6406;SDS011;3236;51.022;6.818;2023-10-31T08:37:04;5.45;;;2.83;;
6406;SDS011;3236;51.022;6.818;2023-10-31T08:39:33;7.07;;;3.00;;
6406;SDS011;3236;51.022;6.818;2023-10-31T08:42:00;8.88;;;3.17;;
6406;SDS011;3236;51.022;6.818;2023-10-31T08:44:27;2.72;;;2.33;;
6406;SDS011;3236;51.022;6.818;2023-10-31T08:46:54;5.05;;;2.50;;
6406;SDS011;3236;51.022;6.818;2023-10-31T08:49:24;4.93;;;2.60;;
6406;SDS011;3236;51.022;6.818;2023-10-31T08:51:52;4.28;;;2.72;;
6406;SDS011;3236;51.022;6.818;2023-10-31T08:54:23;4.30;;;2.63;;
6406;SDS011;3236;51.022;6.818;2023-10-31T08:56:50;6.15;;;3.13;;
6406;SDS011;3236;51.022;6.818;2023-10-31T08:59:20;6.35;;;3.25;;
6406;SDS011;3236;51.022;6.818;2023-10-31T09:01:47;4.10;;;2.47;;
6406;SDS011;3236;51.022;6.818;2023-10-31T09:04:14;4.00;;;1.95;;
6406;SDS011;3236;51.022;6.818;2023-10-31T09:06:41;3.90;;;2.40;;
6406;SDS011;3236;51.022;6.818;2023-10-31T09:09:09;7.13;;;2.28;;
6406;SDS011;3236;51.022;6.818;2023-10-31T09:11:37;2.03;;;1.83;;
6406;SDS011;3236;51.022;6.818;2023-10-31T09:14:04;6.30;;;2.25;;
6406;SDS011;3236;51.022;6.818;2023-10-31T09:16:33;7.70;;;2.67;;
6406;SDS011;3236;51.022;6.818;2023-10-31T09:19:01;6.53;;;2.00;;
6406;SDS011;3236;51.022;6.818;2023-10-31T09:21:29;2.70;;;1.92;;
6406;SDS011;3236;51.022;6.818;2023-10-31T09:23:56;2.10;;;1.88;;
6406;SDS011;3236;51.022;6.818;2023-10-31T09:26:27;4.32;;;1.60;;
6406;SDS011;3236;51.022;6.818;2023-10-31T09:28:56;1.42;;;1.33;;
6406;SDS011;3236;51.022;6.818;2023-10-31T09:31:35;3.30;;;2.22;;
6406;SDS011;3236;51.022;6.818;2023-10-31T09:34:02;1.75;;;1.48;;
6406;SDS011;3236;51.022;6.818;2023-10-31T09:36:31;3.15;;;1.90;;
6406;SDS011;3236;51.022;6.818;2023-10-31T09:39:00;1.55;;;1.40;;
6406;SDS011;3236;51.022;6.818;2023-10-31T09:41:30;3.13;;;1.50;;
6406;SDS011;3236;51.022;6.818;2023-10-31T09:44:02;1.65;;;1.38;;
6406;SDS011;3236;51.022;6.818;2023-10-31T09:46:30;5.30;;;2.05;;
6406;SDS011;3236;51.022;6.818;2023-10-31T09:48:57;4.30;;;1.83;;
6406;SDS011;3236;51.022;6.818;2023-10-31T09:51:28;5.00;;;1.52;;
6406;SDS011;3236;51.022;6.818;2023-10-31T09:53:55;4.20;;;1.75;;
6406;SDS011;3236;51.022;6.818;2023-10-31T09:56:24;2.83;;;1.35;;
6406;SDS011;3236;51.022;6.818;2023-10-31T09:59:03;4.85;;;1.50;;
6406;SDS011;3236;51.022;6.818;2023-10-31T10:01:31;2.25;;;1.42;;
6406;SDS011;3236;51.022;6.818;2023-10-31T10:06:30;3.80;;;1.40;;
6406;SDS011;3236;51.022;6.818;2023-10-31T10:08:57;1.42;;;1.15;;
6406;SDS011;3236;51.022;6.818;2023-10-31T10:11:25;0.77;;;0.73;;
6406;SDS011;3236;51.022;6.818;2023-10-31T10:13:53;2.45;;;1.10;;
6406;SDS011;3236;51.022;6.818;2023-10-31T10:16:31;1.95;;;1.15;;
6406;SDS011;3236;51.022;6.818;2023-10-31T10:19:06;2.00;;;1.27;;
6406;SDS011;3236;51.022;6.818;2023-10-31T10:21:51;1.55;;;0.93;;
6406;SDS011;3236;51.022;6.818;2023-10-31T10:24:40;1.55;;;1.20;;
6406;SDS011;3236;51.022;6.818;2023-10-31T10:27:08;3.05;;;1.13;;
6406;SDS011;3236;51.022;6.818;2023-10-31T10:29:36;3.47;;;1.05;;
6406;SDS011;3236;51.022;6.818;2023-10-31T10:32:06;1.63;;;1.45;;
6406;SDS011;3236;51.022;6.818;2023-10-31T10:34:34;1.88;;;1.20;;
6406;SDS011;3236;51.022;6.818;2023-10-31T10:37:03;1.30;;;1.20;;
6406;SDS011;3236;51.022;6.818;2023-10-31T10:39:32;2.97;;;1.02;;
6406;SDS011;3236;51.022;6.818;2023-10-31T10:42:07;1.45;;;1.00;;
6406;SDS011;3236;51.022;6.818;2023-10-31T10:44:37;2.70;;;1.05;;
6406;SDS011;3236;51.022;6.818;2023-10-31T10:47:12;2.13;;;1.20;;
6406;SDS011;3236;51.022;6.818;2023-10-31T10:49:41;1.10;;;1.00;;
6406;SDS011;3236;51.022;6.818;2023-10-31T10:52:17;3.33;;;0.93;;
6406;SDS011;3236;51.022;6.818;2023-10-31T10:54:57;2.65;;;1.00;;
6406;SDS011;3236;51.022;6.818;2023-10-31T10:57:31;0.98;;;0.77;;
6406;SDS011;3236;51.022;6.818;2023-10-31T11:00:04;4.28;;;1.00;;
6406;SDS011;3236;51.022;6.818;2023-10-31T11:02:35;1.50;;;0.93;;
6406;SDS011;3236;51.022;6.818;2023-10-31T11:05:04;3.65;;;1.00;;
6406;SDS011;3236;51.022;6.818;2023-10-31T11:07:32;1.00;;;0.80;;
6406;SDS011;3236;51.022;6.818;2023-10-31T11:10:01;1.48;;;1.13;;
6406;SDS011;3236;51.022;6.818;2023-10-31T11:12:30;2.75;;;0.90;;
6406;SDS011;3236;51.022;6.818;2023-10-31T11:14:57;2.75;;;1.08;;
6406;SDS011;3236;51.022;6.818;2023-10-31T11:17:27;3.65;;;1.20;;
6406;SDS011;3236;51.022;6.818;2023-10-31T11:22:33;2.35;;;0.88;;
6406;SDS011;3236;51.022;6.818;2023-10-31T11:25:04;2.97;;;0.82;;
6406;SDS011;3236;51.022;6.818;2023-10-31T11:27:33;1.48;;;0.80;;
6406;SDS011;3236;51.022;6.818;2023-10-31T11:30:01;1.48;;;0.82;;
6406;SDS011;3236;51.022;6.818;2023-10-31T11:32:31;2.60;;;0.95;;
6406;SDS011;3236;51.022;6.818;2023-10-31T11:35:02;2.17;;;1.52;;
6406;SDS011;3236;51.022;6.818;2023-10-31T11:37:32;1.23;;;0.73;;
6406;SDS011;3236;51.022;6.818;2023-10-31T11:40:17;1.45;;;0.57;;
6406;SDS011;3236;51.022;6.818;2023-10-31T11:42:49;1.65;;;1.15;;
6406;SDS011;3236;51.022;6.818;2023-10-31T11:45:26;1.33;;;0.95;;
6406;SDS011;3236;51.022;6.818;2023-10-31T11:47:55;0.82;;;0.73;;
6406;SDS011;3236;51.022;6.818;2023-10-31T11:50:25;2.85;;;0.95;;
6406;SDS011;3236;51.022;6.818;2023-10-31T11:52:58;1.33;;;1.00;;
6406;SDS011;3236;51.022;6.818;2023-10-31T11:55:27;3.58;;;1.00;;
6406;SDS011;3236;51.022;6.818;2023-10-31T11:57:54;1.92;;;1.00;;
6406;SDS011;3236;51.022;6.818;2023-10-31T12:00:22;0.60;;;0.60;;
6406;SDS011;3236;51.022;6.818;2023-10-31T12:02:59;2.15;;;0.82;;
6406;SDS011;3236;51.022;6.818;2023-10-31T12:05:28;1.35;;;1.10;;
6406;SDS011;3236;51.022;6.818;2023-10-31T12:07:55;0.93;;;0.88;;
6406;SDS011;3236;51.022;6.818;2023-10-31T12:10:23;1.52;;;0.90;;
6406;SDS011;3236;51.022;6.818;2023-10-31T12:12:54;3.42;;;1.02;;
6406;SDS011;3236;51.022;6.818;2023-10-31T12:15:21;2.55;;;1.20;;
6406;SDS011;3236;51.022;6.818;2023-10-31T12:17:51;1.65;;;0.70;;
6406;SDS011;3236;51.022;6.818;2023-10-31T12:20:18;3.58;;;1.10;;
6406;SDS011;3236;51.022;6.818;2023-10-31T12:22:47;3.33;;;0.80;;
6406;SDS011;3236;51.022;6.818;2023-10-31T12:25:27;3.05;;;0.90;;
6406;SDS011;3236;51.022;6.818;2023-10-31T12:27:54;2.67;;;1.02;;
6406;SDS011;3236;51.022;6.818;2023-10-31T12:30:21;2.47;;;0.80;;
6406;SDS011;3236;51.022;6.818;2023-10-31T12:32:53;1.67;;;0.80;;
6406;SDS011;3236;51.022;6.818;2023-10-31T12:35:21;4.00;;;1.60;;
6406;SDS011;3236;51.022;6.818;2023-10-31T12:37:50;1.48;;;0.60;;
6406;SDS011;3236;51.022;6.818;2023-10-31T12:40:18;7.75;;;0.85;;
6406;SDS011;3236;51.022;6.818;2023-10-31T12:42:47;2.20;;;1.00;;
6406;SDS011;3236;51.022;6.818;2023-10-31T12:45:15;0.75;;;0.60;;
6406;SDS011;3236;51.022;6.818;2023-10-31T12:47:44;1.90;;;0.75;;
6406;SDS011;3236;51.022;6.818;2023-10-31T12:50:12;1.92;;;0.93;;
6406;SDS011;3236;51.022;6.818;2023-10-31T12:52:51;2.28;;;1.00;;
6406;SDS011;3236;51.022;6.818;2023-10-31T12:55:20;4.13;;;0.85;;
6406;SDS011;3236;51.022;6.818;2023-10-31T12:57:52;2.15;;;0.80;;
6406;SDS011;3236;51.022;6.818;2023-10-31T13:00:19;2.40;;;0.70;;
6406;SDS011;3236;51.022;6.818;2023-10-31T13:02:51;3.00;;;0.80;;
6406;SDS011;3236;51.022;6.818;2023-10-31T13:05:25;1.98;;;0.93;;
6406;SDS011;3236;51.022;6.818;2023-10-31T13:07:54;2.15;;;0.90;;
6406;SDS011;3236;51.022;6.818;2023-10-31T13:10:22;4.30;;;0.80;;
6406;SDS011;3236;51.022;6.818;2023-10-31T13:12:51;4.47;;;0.90;;
6406;SDS011;3236;51.022;6.818;2023-10-31T13:15:19;3.10;;;1.13;;
6406;SDS011;3236;51.022;6.818;2023-10-31T13:17:48;2.92;;;1.05;;
6406;SDS011;3236;51.022;6.818;2023-10-31T13:20:15;1.08;;;0.80;;
6406;SDS011;3236;51.022;6.818;2023-10-31T13:22:43;1.95;;;0.80;;
6406;SDS011;3236;51.022;6.818;2023-10-31T13:25:15;2.15;;;0.85;;
6406;SDS011;3236;51.022;6.818;2023-10-31T13:27:44;2.25;;;0.98;;
6406;SDS011;3236;51.022;6.818;2023-10-31T13:30:16;3.78;;;1.02;;
6406;SDS011;3236;51.022;6.818;2023-10-31T13:32:44;3.60;;;1.30;;
6406;SDS011;3236;51.022;6.818;2023-10-31T13:35:11;1.80;;;0.80;;
6406;SDS011;3236;51.022;6.818;2023-10-31T13:37:40;5.70;;;1.00;;
6406;SDS011;3236;51.022;6.818;2023-10-31T13:40:07;4.97;;;1.08;;
6406;SDS011;3236;51.022;6.818;2023-10-31T13:42:40;1.40;;;1.13;;
6406;SDS011;3236;51.022;6.818;2023-10-31T13:45:12;3.28;;;0.90;;
6406;SDS011;3236;51.022;6.818;2023-10-31T13:47:42;3.40;;;0.80;;
6406;SDS011;3236;51.022;6.818;2023-10-31T13:50:09;2.03;;;0.82;;
6406;SDS011;3236;51.022;6.818;2023-10-31T13:52:36;8.57;;;1.20;;
6406;SDS011;3236;51.022;6.818;2023-10-31T13:55:04;4.38;;;1.50;;
6406;SDS011;3236;51.022;6.818;2023-10-31T13:57:32;4.72;;;1.02;;
6406;SDS011;3236;51.022;6.818;2023-10-31T14:00:00;3.95;;;0.77;;
6406;SDS011;3236;51.022;6.818;2023-10-31T14:02:28;3.90;;;0.73;;
6406;SDS011;3236;51.022;6.818;2023-10-31T14:04:56;3.30;;;0.80;;
6406;SDS011;3236;51.022;6.818;2023-10-31T14:07:23;2.22;;;0.93;;
6406;SDS011;3236;51.022;6.818;2023-10-31T14:09:51;1.83;;;0.80;;
6406;SDS011;3236;51.022;6.818;2023-10-31T14:12:21;2.67;;;0.93;;
6406;SDS011;3236;51.022;6.818;2023-10-31T14:14:48;4.47;;;1.25;;
6406;SDS011;3236;51.022;6.818;2023-10-31T14:17:17;5.32;;;0.93;;
6406;SDS011;3236;51.022;6.818;2023-10-31T14:19:44;2.80;;;0.80;;
6406;SDS011;3236;51.022;6.818;2023-10-31T14:22:12;3.33;;;0.95;;
6406;SDS011;3236;51.022;6.818;2023-10-31T14:24:39;2.85;;;0.90;;
6406;SDS011;3236;51.022;6.818;2023-10-31T14:27:07;6.38;;;1.38;;
6406;SDS011;3236;51.022;6.818;2023-10-31T14:29:36;4.85;;;1.50;;
6406;SDS011;3236;51.022;6.818;2023-10-31T14:32:06;4.90;;;1.25;;
6406;SDS011;3236;51.022;6.818;2023-10-31T14:34:35;1.95;;;0.95;;
6406;SDS011;3236;51.022;6.818;2023-10-31T14:37:02;4.28;;;0.93;;
6406;SDS011;3236;51.022;6.818;2023-10-31T14:39:31;3.60;;;1.20;;
6406;SDS011;3236;51.022;6.818;2023-10-31T14:41:58;5.38;;;1.13;;
6406;SDS011;3236;51.022;6.818;2023-10-31T14:44:25;8.23;;;1.55;;
6406;SDS011;3236;51.022;6.818;2023-10-31T14:46:52;4.15;;;1.40;;
6406;SDS011;3236;51.022;6.818;2023-10-31T14:49:20;3.85;;;1.10;;
6406;SDS011;3236;51.022;6.818;2023-10-31T14:51:48;3.92;;;0.90;;
6406;SDS011;3236;51.022;6.818;2023-10-31T14:54:16;0.90;;;0.80;;
6406;SDS011;3236;51.022;6.818;2023-10-31T14:56:46;5.75;;;1.23;;
6406;SDS011;3236;51.022;6.818;2023-10-31T14:59:16;3.08;;;1.10;;
6406;SDS011;3236;51.022;6.818;2023-10-31T15:01:43;7.32;;;1.38;;
6406;SDS011;3236;51.022;6.818;2023-10-31T15:04:10;4.60;;;0.75;;
6406;SDS011;3236;51.022;6.818;2023-10-31T15:06:38;4.55;;;1.42;;
6406;SDS011;3236;51.022;6.818;2023-10-31T15:09:06;6.88;;;1.20;;
6406;SDS011;3236;51.022;6.818;2023-10-31T15:11:33;7.85;;;1.33;;
6406;SDS011;3236;51.022;6.818;2023-10-31T15:14:00;3.25;;;1.20;;
6406;SDS011;3236;51.022;6.818;2023-10-31T15:16:30;6.15;;;1.20;;
6406;SDS011;3236;51.022;6.818;2023-10-31T15:18:58;5.93;;;1.27;;
6406;SDS011;3236;51.022;6.818;2023-10-31T15:21:25;3.85;;;1.00;;
6406;SDS011;3236;51.022;6.818;2023-10-31T15:23:52;6.13;;;1.40;;
6406;SDS011;3236;51.022;6.818;2023-10-31T15:26:23;10.20;;;1.90;;
6406;SDS011;3236;51.022;6.818;2023-10-31T15:28:51;2.05;;;1.48;;
6406;SDS011;3236;51.022;6.818;2023-10-31T15:31:22;7.13;;;1.75;;
6406;SDS011;3236;51.022;6.818;2023-10-31T15:33:49;7.55;;;2.15;;